createdAt,value
2022-09-20T00:04:42.746Z,94.93
2022-09-20T00:09:44.364Z,93.99
2022-09-20T00:14:45.907Z,94.22
2022-09-20T00:19:47.436Z,93.75
2022-09-20T00:24:49.231Z,94.23
2022-09-20T00:29:50.938Z,94.70
2022-09-20T00:35:11.109Z,94.75
2022-09-20T00:40:15.981Z,96.22
2022-09-20T00:45:23.899Z,95.31
2022-09-20T00:50:44.647Z,96.77
2022-09-20T00:55:56.329Z,96.72
2022-09-20T01:00:58.197Z,96.69
2022-09-20T01:06:03.244Z,97.43
2022-09-20T01:11:05.047Z,96.87
2022-09-20T01:16:07.544Z,96.75
2022-09-20T01:21:09.560Z,97.91
2022-09-20T01:26:29.228Z,98.46
2022-09-20T01:31:34.226Z,97.70
2022-09-20T01:37:05.316Z,97.25
2022-09-20T01:42:10.196Z,97.52
2022-09-20T01:47:19.365Z,97.87
2022-09-20T01:52:58.704Z,97.65
2022-09-20T01:58:29.419Z,98.08
2022-09-20T02:04:18.522Z,96.48
2022-09-20T02:09:57.047Z,97.30
2022-09-20T02:15:14.092Z,96.17
2022-09-20T02:20:34.914Z,95.34
2022-09-20T02:25:49.909Z,95.46
2022-09-20T02:31:21.715Z,94.86
2022-09-20T02:36:39.211Z,95.79
2022-09-20T02:42:04.560Z,95.31
2022-09-20T02:47:12.462Z,93.98
2022-09-20T02:52:49.918Z,96.19
2022-09-20T02:58:21.169Z,96.21
2022-09-20T03:03:44.487Z,95.77
2022-09-20T03:09:11.579Z,95.14
2022-09-20T03:14:18.893Z,95.60
2022-09-20T03:19:33.538Z,97.46
2022-09-20T03:24:54.532Z,95.27
2022-09-20T03:30:15.217Z,95.83
2022-09-20T03:35:37.883Z,95.04
2022-09-20T03:40:51.660Z,95.21
2022-09-20T03:46:08.298Z,95.61
2022-09-20T03:51:23.584Z,95.26
2022-09-20T03:56:44.728Z,94.61
2022-09-20T04:01:52.512Z,95.72
2022-09-20T04:07:05.968Z,95.93
2022-09-20T04:12:26.918Z,96.42
2022-09-20T04:17:42.906Z,95.10
2022-09-20T04:22:44.741Z,96.65
2022-09-20T04:27:50.134Z,96.43
2022-09-20T04:33:03.393Z,96.97
2022-09-20T04:38:08.960Z,95.61
2022-09-20T04:43:53.735Z,97.85
2022-09-20T04:49:17.273Z,96.86
2022-09-20T04:54:25.135Z,96.80
2022-09-20T04:59:29.779Z,97.06
2022-09-20T05:04:49.800Z,97.34
2022-09-20T05:10:14.586Z,97.02
2022-09-20T05:15:37.646Z,96.93
2022-09-20T05:21:08.576Z,95.10
2022-09-20T05:26:30.131Z,95.62
2022-09-20T05:31:40.891Z,95.81
2022-09-20T05:36:53.532Z,95.32
2022-09-20T05:42:19.861Z,95.24
2022-09-20T05:47:48.817Z,95.66
2022-09-20T05:52:53.154Z,97.02
2022-09-20T05:58:04.099Z,96.27
2022-09-20T06:03:24.323Z,96.34
2022-09-20T06:08:57.961Z,96.96
2022-09-20T06:14:03.821Z,95.71
2022-09-20T06:19:22.756Z,97.08
2022-09-20T06:24:47.418Z,95.17
2022-09-20T06:29:56.186Z,94.47
2022-09-20T06:35:00.504Z,94.81
2022-09-20T06:40:57.688Z,94.89
2022-09-20T06:45:59.333Z,93.37
2022-09-20T06:51:01.524Z,94.11
2022-09-20T06:56:03.275Z,93.49
2022-09-20T07:01:04.979Z,92.88
2022-09-20T07:06:06.582Z,92.57
2022-09-20T07:11:13.279Z,90.96
2022-09-20T07:16:15.124Z,91.03
2022-09-20T07:21:18.075Z,91.06
2022-09-20T07:26:28.365Z,90.97
2022-09-20T07:31:30.499Z,91.88
2022-09-20T07:36:32.110Z,92.87
2022-09-20T07:41:33.658Z,91.84
2022-09-20T07:46:36.087Z,91.89
2022-09-20T07:51:37.611Z,91.86
2022-09-20T07:56:39.462Z,91.18
2022-09-20T08:01:41.930Z,91.02
2022-09-20T08:06:44.779Z,91.14
2022-09-20T08:11:46.444Z,91.77
2022-09-20T08:16:48.749Z,90.50
2022-09-20T08:21:51.538Z,91.70
2022-09-20T08:26:53.178Z,90.25
2022-09-20T08:31:58.227Z,91.03
2022-09-20T08:36:59.810Z,89.76
2022-09-20T08:42:15.082Z,88.84
2022-09-20T08:47:23.171Z,87.57
2022-09-20T08:52:36.243Z,87.04
2022-09-20T08:57:38.542Z,86.49
2022-09-20T09:02:41.746Z,86.94
2022-09-20T09:07:43.258Z,86.32
2022-09-20T09:12:48.689Z,85.35
2022-09-20T09:17:50.538Z,84.71
2022-09-20T09:23:03.210Z,85.26
2022-09-20T09:28:07.401Z,85.75
2022-09-20T09:33:30.508Z,86.85
2022-09-20T09:38:37.634Z,87.64
2022-09-20T09:43:40.575Z,87.66
2022-09-20T09:48:42.158Z,89.08
2022-09-20T09:53:45.050Z,89.17
2022-09-20T09:59:23.244Z,88.11
2022-09-20T10:04:33.054Z,86.94
2022-09-20T10:09:57.642Z,87.87
2022-09-20T10:15:10.341Z,87.31
2022-09-20T10:20:51.290Z,85.91
2022-09-20T10:26:34.989Z,86.25
2022-09-20T10:32:15.306Z,84.07
2022-09-20T10:37:53.259Z,83.54
2022-09-20T10:43:15.623Z,83.19
2022-09-20T10:48:28.428Z,83.46
2022-09-20T10:53:32.787Z,82.61
2022-09-20T10:59:07.591Z,81.94
2022-09-20T11:04:21.293Z,80.40
2022-09-20T11:09:26.612Z,78.96
2022-09-20T11:14:34.339Z,78.86
2022-09-20T11:19:56.503Z,80.09
2022-09-20T11:25:21.677Z,78.88
2022-09-20T11:30:24.897Z,77.16
2022-09-20T11:35:39.661Z,78.32
2022-09-20T11:41:00.388Z,77.29
2022-09-20T11:46:05.780Z,77.07
2022-09-20T11:51:25.594Z,76.27
2022-09-20T11:56:29.083Z,78.07
2022-09-20T12:01:39.390Z,77.87
2022-09-20T12:06:42.555Z,76.36
2022-09-20T12:11:44.082Z,76.26
2022-09-20T12:16:47.841Z,74.41
2022-09-20T12:21:58.414Z,74.82
2022-09-20T12:27:19.886Z,71.97
2022-09-20T12:32:41.105Z,73.04
2022-09-20T12:37:42.670Z,72.57
2022-09-20T12:42:44.229Z,74.17
2022-09-20T12:47:54.740Z,74.77
2022-09-20T12:52:57.617Z,75.71
2022-09-20T12:58:13.665Z,75.53
2022-09-20T13:03:15.104Z,75.34
2022-09-20T13:08:25.284Z,73.76
2022-09-20T13:13:30.779Z,72.91
2022-09-20T13:18:34.630Z,72.99
2022-09-20T13:23:45.573Z,71.31
2022-09-20T13:28:49.727Z,71.15
2022-09-20T13:33:51.417Z,72.11
2022-09-20T13:38:55.187Z,70.76
2022-09-20T13:43:57.317Z,72.17
2022-09-20T13:49:11.073Z,69.86
2022-09-20T13:54:33.153Z,66.45
2022-09-20T13:59:42.631Z,64.10
2022-09-20T14:04:44.182Z,57.95
2022-09-20T14:09:46.316Z,63.50
2022-09-20T14:14:48.023Z,65.01
2022-09-20T14:19:51.785Z,66.02
2022-09-20T14:24:59.477Z,64.21
2022-09-20T14:30:01.209Z,65.38
2022-09-20T14:35:18.164Z,66.73
2022-09-20T14:40:28.448Z,66.52
2022-09-20T14:45:35.239Z,69.20
2022-09-20T14:50:40.558Z,70.28
2022-09-20T14:56:00.074Z,70.81
2022-09-20T15:01:07.011Z,71.28
2022-09-20T15:06:12.494Z,72.35
2022-09-20T15:11:15.643Z,71.54
2022-09-20T15:16:20.119Z,72.93
2022-09-20T15:21:21.893Z,74.10
2022-09-20T15:26:23.452Z,73.85
2022-09-20T15:31:25.038Z,73.37
2022-09-20T15:36:31.781Z,73.57
2022-09-20T15:41:34.023Z,73.87
2022-09-20T15:46:35.608Z,73.95
2022-09-20T15:51:38.967Z,73.13
2022-09-20T15:56:41.288Z,73.63
2022-09-20T16:01:44.595Z,74.09
2022-09-20T16:06:48.017Z,74.57
2022-09-20T16:11:49.598Z,73.50
2022-09-20T16:16:56.589Z,74.23
2022-09-20T16:21:59.411Z,73.80
2022-09-20T16:27:02.735Z,75.61
2022-09-20T16:32:05.356Z,77.35
2022-09-20T16:37:11.942Z,77.33
2022-09-20T16:42:13.614Z,78.53
2022-09-20T16:47:21.876Z,79.31
2022-09-20T16:52:26.469Z,79.36
2022-09-20T16:57:28.837Z,79.42
2022-09-20T17:02:30.411Z,79.94
2022-09-20T17:07:32.089Z,80.68
2022-09-20T17:12:34.483Z,78.63
2022-09-20T17:17:36.024Z,76.73
2022-09-20T17:22:37.566Z,76.84
2022-09-20T17:27:39.223Z,78.46
2022-09-20T17:32:48.114Z,80.29
2022-09-20T17:37:49.799Z,79.29
2022-09-20T17:42:51.785Z,81.56
2022-09-20T17:47:56.713Z,81.67
2022-09-20T17:52:58.256Z,81.18
2022-09-20T17:58:00.146Z,84.37
2022-09-20T18:03:04.921Z,84.50
2022-09-20T18:08:06.878Z,86.67
2022-09-20T18:13:08.408Z,85.81
2022-09-20T18:18:09.931Z,86.55
2022-09-20T18:23:11.704Z,87.15
2022-09-20T18:28:14.083Z,85.85
2022-09-20T18:33:18.636Z,85.03
2022-09-20T18:38:20.707Z,86.29
2022-09-20T18:43:22.216Z,83.95
2022-09-20T18:48:25.838Z,84.64
2022-09-20T18:53:28.933Z,84.55
2022-09-20T18:58:30.713Z,85.73
2022-09-20T19:03:53.984Z,86.44
2022-09-20T19:09:04.899Z,88.00
2022-09-20T19:14:17.399Z,86.25
2022-09-20T19:19:42.177Z,88.03
2022-09-20T19:24:56.808Z,88.72
2022-09-20T19:29:58.555Z,89.60
2022-09-20T19:35:03.874Z,89.47
2022-09-20T19:40:24.166Z,89.53
2022-09-20T19:45:48.061Z,90.14
2022-09-20T19:50:52.635Z,91.39
2022-09-20T19:56:01.549Z,90.19
2022-09-20T20:01:03.349Z,91.41
2022-09-20T20:06:21.986Z,90.91
2022-09-20T20:11:54.106Z,91.43
2022-09-20T20:17:17.396Z,92.33
2022-09-20T20:22:40.943Z,91.16
2022-09-20T20:27:42.483Z,91.26
2022-09-20T20:32:44.114Z,92.42
2022-09-20T20:37:47.431Z,92.68
2022-09-20T20:42:49.385Z,91.32
2022-09-20T20:47:56.686Z,91.79
2022-09-20T20:52:58.256Z,91.28
2022-09-20T20:57:59.801Z,90.21
2022-09-20T21:03:01.752Z,91.90
2022-09-20T21:08:03.357Z,90.85
2022-09-20T21:13:04.909Z,91.51
2022-09-20T21:18:06.431Z,90.91
2022-09-20T21:23:07.942Z,92.28
2022-09-20T21:28:09.445Z,92.09
2022-09-20T21:33:11.491Z,92.12
2022-09-20T21:38:13.027Z,93.74
2022-09-20T21:43:15.136Z,92.46
2022-09-20T21:48:17.872Z,91.63
2022-09-20T21:53:19.614Z,91.32
2022-09-20T21:58:21.129Z,92.92
2022-09-20T22:03:22.654Z,92.42
2022-09-20T22:08:24.237Z,91.97
2022-09-20T22:13:25.887Z,91.71
2022-09-20T22:18:27.423Z,92.79
2022-09-20T22:23:30.088Z,93.98
2022-09-20T22:28:31.730Z,94.31
2022-09-20T22:33:33.569Z,92.48
2022-09-20T22:38:35.091Z,93.29
2022-09-20T22:43:37.314Z,94.05
2022-09-20T22:48:39.679Z,94.23
2022-09-20T22:53:41.605Z,94.93
2022-09-20T22:58:46.180Z,93.95
2022-09-20T23:03:52.916Z,94.63
2022-09-20T23:08:56.779Z,94.46
2022-09-20T23:14:00.571Z,94.89
2022-09-20T23:19:03.922Z,95.24
2022-09-20T23:24:08.089Z,95.93
2022-09-20T23:29:12.563Z,96.21
2022-09-20T23:34:15.271Z,96.02
2022-09-20T23:39:16.866Z,96.06
2022-09-20T23:44:18.849Z,95.51
2022-09-20T23:49:20.498Z,96.38
2022-09-20T23:54:22.111Z,96.93
2022-09-20T23:59:23.777Z,97.58
